createdAt,value
2023-11-16T00:00:30.430Z,7.70
2023-11-16T00:01:30.482Z,7.69
2023-11-16T00:02:30.338Z,7.69
2023-11-16T00:03:30.330Z,7.72
2023-11-16T00:04:30.386Z,7.70
2023-11-16T00:05:30.323Z,7.70
2023-11-16T00:06:30.370Z,7.70
2023-11-16T00:07:30.270Z,7.70
2023-11-16T00:08:30.284Z,7.73
2023-11-16T00:09:30.255Z,7.75
2023-11-16T00:10:30.235Z,7.75
2023-11-16T00:11:30.240Z,7.75
2023-11-16T00:12:30.299Z,7.75
2023-11-16T00:13:30.198Z,7.72
2023-11-16T00:14:30.198Z,7.73
2023-11-16T00:15:30.252Z,7.72
2023-11-16T00:16:30.252Z,7.73
2023-11-16T00:17:30.192Z,7.73
2023-11-16T00:18:30.161Z,7.72
2023-11-16T00:19:30.135Z,7.72
2023-11-16T00:20:30.151Z,7.73
2023-11-16T00:21:30.172Z,7.73
2023-11-16T00:22:30.125Z,7.73
2023-11-16T00:23:30.137Z,7.78
2023-11-16T00:24:30.146Z,7.78
2023-11-16T00:25:30.083Z,7.79
2023-11-16T00:26:30.077Z,7.79
2023-11-16T00:27:30.064Z,7.80
2023-11-16T00:28:30.093Z,7.80
2023-11-16T00:29:30.034Z,7.83
2023-11-16T00:30:30.112Z,7.83
2023-11-16T00:31:30.057Z,7.84
2023-11-16T00:32:30.083Z,7.86
2023-11-16T00:33:30.036Z,7.86
2023-11-16T00:34:30.005Z,7.86
2023-11-16T00:35:29.994Z,7.87
2023-11-16T00:36:29.984Z,7.86
2023-11-16T00:37:29.989Z,7.88
2023-11-16T00:38:29.950Z,7.87
2023-11-16T00:39:29.958Z,7.88
2023-11-16T00:40:29.935Z,7.88
2023-11-16T00:41:29.914Z,7.87
2023-11-16T00:42:30.016Z,7.84
2023-11-16T00:43:29.900Z,7.87
2023-11-16T00:44:29.874Z,7.87
2023-11-16T00:45:29.920Z,7.86
2023-11-16T00:46:29.892Z,7.87
2023-11-16T00:47:29.889Z,7.87
2023-11-16T00:48:29.914Z,7.86
2023-11-16T00:49:30.448Z,7.84
2023-11-16T00:50:29.884Z,7.84
2023-11-16T00:51:29.819Z,7.84
2023-11-16T00:52:29.824Z,7.84
2023-11-16T00:53:29.793Z,7.84
2023-11-16T00:54:29.865Z,7.84
2023-11-16T00:55:29.766Z,7.86
2023-11-16T00:56:29.756Z,7.86
2023-11-16T00:57:29.830Z,7.86
2023-11-16T00:58:29.723Z,7.86
2023-11-16T00:59:29.740Z,7.83
2023-11-16T01:00:29.775Z,7.83
2023-11-16T01:01:29.705Z,7.80
2023-11-16T01:02:29.740Z,7.79
2023-11-16T01:03:29.779Z,7.79
2023-11-16T01:04:29.657Z,7.78
2023-11-16T01:05:29.658Z,7.78
2023-11-16T01:06:29.802Z,7.76
2023-11-16T01:07:29.650Z,7.78
2023-11-16T01:08:29.657Z,7.78
2023-11-16T01:09:29.670Z,7.78
2023-11-16T01:10:29.597Z,7.76
2023-11-16T01:11:29.582Z,7.76
2023-11-16T01:12:29.636Z,7.75
2023-11-16T01:13:29.576Z,7.76
2023-11-16T01:14:29.582Z,7.76
2023-11-16T01:15:29.624Z,7.76
2023-11-16T01:16:29.595Z,7.78
2023-11-16T01:17:29.626Z,7.79
2023-11-16T01:18:29.515Z,7.78
2023-11-16T01:19:29.508Z,7.78
2023-11-16T01:20:29.511Z,7.79
2023-11-16T01:21:29.550Z,7.78
2023-11-16T01:22:29.519Z,7.78
2023-11-16T01:23:29.454Z,7.78
2023-11-16T01:24:29.492Z,7.79
2023-11-16T01:25:29.459Z,7.79
2023-11-16T01:26:29.440Z,7.80
2023-11-16T01:27:29.477Z,7.78
2023-11-16T01:28:29.435Z,7.80
2023-11-16T01:29:29.403Z,7.79
2023-11-16T01:30:29.460Z,7.78
2023-11-16T01:31:29.480Z,7.78
2023-11-16T01:32:29.417Z,7.78
2023-11-16T01:33:29.401Z,7.76
2023-11-16T01:34:29.395Z,7.78
2023-11-16T01:35:29.504Z,7.78
2023-11-16T01:36:29.476Z,7.76
2023-11-16T01:37:29.424Z,7.76
2023-11-16T01:38:29.351Z,7.79
2023-11-16T01:39:29.335Z,7.79
2023-11-16T01:40:29.428Z,7.80
2023-11-16T01:41:29.269Z,7.79
2023-11-16T01:42:29.362Z,7.79
2023-11-16T01:43:29.244Z,7.79
2023-11-16T01:44:29.251Z,7.80
2023-11-16T01:45:29.301Z,7.79
2023-11-16T01:46:29.257Z,7.80
2023-11-16T01:47:29.214Z,7.79
2023-11-16T01:48:29.217Z,7.80
2023-11-16T01:49:29.182Z,7.80
2023-11-16T01:50:29.171Z,7.80
2023-11-16T01:51:29.279Z,7.80
2023-11-16T01:52:29.189Z,7.83
2023-11-16T01:53:29.145Z,7.83
2023-11-16T01:54:29.170Z,7.79
2023-11-16T01:55:29.128Z,7.79
2023-11-16T01:56:29.143Z,7.79
2023-11-16T01:57:29.198Z,7.80
2023-11-16T01:58:29.117Z,7.80
2023-11-16T01:59:29.104Z,7.83
2023-11-16T02:00:29.109Z,7.83
2023-11-16T02:01:29.079Z,7.83
2023-11-16T02:02:29.068Z,7.80
2023-11-16T02:03:29.214Z,7.84
2023-11-16T02:04:29.079Z,7.86
2023-11-16T02:05:29.011Z,7.87
2023-11-16T02:06:29.077Z,7.86
2023-11-16T02:07:28.997Z,7.87
2023-11-16T02:08:29.021Z,7.88
2023-11-16T02:09:29.004Z,7.86
2023-11-16T02:10:28.982Z,7.84
2023-11-16T02:11:28.970Z,7.86
2023-11-16T02:12:28.952Z,7.88
2023-11-16T02:13:28.968Z,7.88
2023-11-16T02:14:28.937Z,7.90
2023-11-16T02:15:29.025Z,7.90
2023-11-16T02:16:28.968Z,7.88
2023-11-16T02:17:28.870Z,7.91
2023-11-16T02:18:28.946Z,7.90
2023-11-16T02:19:28.887Z,7.94
2023-11-16T02:21:55.143Z,7.94
2023-11-16T02:22:41.097Z,7.91
2023-11-16T02:23:41.068Z,7.88
2023-11-16T02:24:41.066Z,7.90
2023-11-16T02:25:41.024Z,7.91
2023-11-16T02:26:40.992Z,7.91
2023-11-16T02:27:41.028Z,7.91
2023-11-16T02:28:40.996Z,7.91
2023-11-16T02:29:40.983Z,7.91
2023-11-16T02:30:40.971Z,7.91
2023-11-16T02:31:40.961Z,7.94
2023-11-16T02:32:41.000Z,7.93
2023-11-16T02:33:40.951Z,7.94
2023-11-16T02:34:40.933Z,7.93
2023-11-16T02:35:40.896Z,7.93
2023-11-16T02:36:40.919Z,7.94
2023-11-16T02:37:40.875Z,7.93
2023-11-16T02:38:40.930Z,7.91
2023-11-16T02:39:40.894Z,7.91
2023-11-16T02:40:40.869Z,7.91
2023-11-16T02:41:40.846Z,7.90
2023-11-16T02:42:40.867Z,7.91
2023-11-16T02:43:40.837Z,7.91
2023-11-16T02:44:40.812Z,7.91
2023-11-16T02:45:40.821Z,7.91
2023-11-16T02:46:40.817Z,7.91
2023-11-16T02:47:40.834Z,7.93
2023-11-16T02:48:40.849Z,7.93
2023-11-16T02:49:40.750Z,7.91
2023-11-16T02:50:40.768Z,7.91
2023-11-16T02:51:40.745Z,7.91
2023-11-16T02:52:40.718Z,7.93
2023-11-16T02:53:40.721Z,7.91
2023-11-16T02:54:40.750Z,7.91
2023-11-16T02:55:40.701Z,7.90
2023-11-16T02:56:40.700Z,7.93
2023-11-16T02:57:40.727Z,7.91
2023-11-16T02:58:40.676Z,7.93
2023-11-16T02:59:40.687Z,7.94
2023-11-16T03:00:40.858Z,7.94
2023-11-16T03:01:40.700Z,7.94
2023-11-16T03:02:40.678Z,7.93
2023-11-16T03:03:40.668Z,7.93
2023-11-16T03:04:40.674Z,7.93
2023-11-16T03:05:40.623Z,7.93
2023-11-16T03:06:40.636Z,7.94
2023-11-16T03:07:40.566Z,7.94
2023-11-16T03:08:40.563Z,7.94
2023-11-16T03:09:40.640Z,7.94
2023-11-16T03:10:40.545Z,7.94
2023-11-16T03:11:40.528Z,7.94
2023-11-16T03:12:40.579Z,7.94
2023-11-16T03:13:40.513Z,7.96
2023-11-16T03:14:40.497Z,7.96
2023-11-16T03:15:40.493Z,7.96
2023-11-16T03:16:40.626Z,7.96
2023-11-16T03:17:40.497Z,7.97
2023-11-16T03:18:40.498Z,7.96
2023-11-16T03:19:40.443Z,7.94
2023-11-16T03:20:40.418Z,7.97
2023-11-16T03:21:40.485Z,7.93
2023-11-16T03:22:40.405Z,7.94
2023-11-16T03:23:40.429Z,7.96
2023-11-16T03:24:40.404Z,7.94
2023-11-16T03:25:40.403Z,7.97
2023-11-16T03:26:40.395Z,7.97
2023-11-16T03:27:40.428Z,7.98
2023-11-16T03:28:40.371Z,8.01
2023-11-16T03:29:43.283Z,8.01
2023-11-16T03:30:40.528Z,8.01
2023-11-16T03:31:40.353Z,8.02
2023-11-16T03:32:40.302Z,8.02
2023-11-16T03:33:40.351Z,8.04
2023-11-16T03:34:40.302Z,8.04
2023-11-16T03:35:40.262Z,8.04
2023-11-16T03:36:40.383Z,8.05
2023-11-16T03:37:40.240Z,8.02
2023-11-16T03:38:40.245Z,8.01
2023-11-16T03:39:40.253Z,8.02
2023-11-16T03:40:40.217Z,8.01
2023-11-16T03:41:40.231Z,8.01
2023-11-16T03:42:40.284Z,7.98
2023-11-16T03:43:40.183Z,8.01
2023-11-16T03:44:40.196Z,8.01
2023-11-16T03:45:40.192Z,8.01
2023-11-16T03:46:40.169Z,7.97
2023-11-16T03:47:40.196Z,8.01
2023-11-16T03:48:40.216Z,7.98
2023-11-16T03:49:40.116Z,8.02
2023-11-16T03:50:40.118Z,8.01
2023-11-16T03:51:40.169Z,8.01
2023-11-16T03:52:40.094Z,7.98
2023-11-16T03:53:40.101Z,7.98
2023-11-16T03:54:40.091Z,8.01
2023-11-16T03:55:40.110Z,8.01
2023-11-16T03:56:40.065Z,8.01
2023-11-16T03:57:40.045Z,7.98
2023-11-16T03:58:40.026Z,7.98
2023-11-16T03:59:40.001Z,7.98
2023-11-16T04:00:40.033Z,7.98
2023-11-16T04:01:40.057Z,7.98
2023-11-16T04:02:39.994Z,8.01
2023-11-16T04:03:40.119Z,8.02
2023-11-16T04:04:39.972Z,7.98
2023-11-16T04:05:39.948Z,8.02
2023-11-16T04:06:39.995Z,8.01
2023-11-16T04:07:41.868Z,8.04
2023-11-16T04:08:39.920Z,8.04
2023-11-16T04:09:39.989Z,8.05
2023-11-16T04:10:39.897Z,8.04
2023-11-16T04:11:39.877Z,8.05
2023-11-16T04:12:39.877Z,8.06
2023-11-16T04:13:39.861Z,8.06
2023-11-16T04:14:39.863Z,8.04
2023-11-16T04:15:39.891Z,8.04
2023-11-16T04:16:39.860Z,8.05
2023-11-16T04:17:39.862Z,8.06
2023-11-16T04:18:39.909Z,8.06
2023-11-16T04:19:39.865Z,8.06
2023-11-16T04:20:39.787Z,8.08
2023-11-16T04:21:39.833Z,8.08
2023-11-16T04:22:39.760Z,8.09
2023-11-16T04:23:39.752Z,8.08
2023-11-16T04:24:39.781Z,8.05
2023-11-16T04:25:39.756Z,8.05
2023-11-16T04:26:39.820Z,8.04
2023-11-16T04:27:39.759Z,8.05
2023-11-16T04:28:39.700Z,8.05
2023-11-16T04:29:39.722Z,8.06
2023-11-16T04:30:39.730Z,8.04
2023-11-16T04:31:39.730Z,8.05
2023-11-16T04:32:39.685Z,8.06
2023-11-16T04:33:39.692Z,8.08
2023-11-16T04:34:39.660Z,8.08
2023-11-16T04:35:39.644Z,8.08
2023-11-16T04:36:39.633Z,8.11
2023-11-16T04:37:39.629Z,8.11
2023-11-16T04:38:39.613Z,8.08
2023-11-16T04:39:39.631Z,8.09
2023-11-16T04:40:39.604Z,8.11
2023-11-16T04:41:39.581Z,8.11
2023-11-16T04:42:39.584Z,8.11
2023-11-16T04:43:39.556Z,8.11
2023-11-16T04:44:39.557Z,8.08
2023-11-16T04:45:39.593Z,8.06
2023-11-16T04:46:39.524Z,8.04
2023-11-16T04:47:39.584Z,8.02
2023-11-16T04:48:39.596Z,8.02
2023-11-16T04:49:39.495Z,8.04
2023-11-16T04:50:39.496Z,8.04
2023-11-16T04:51:39.503Z,8.02
2023-11-16T04:52:39.471Z,8.02
2023-11-16T04:53:39.444Z,8.04
2023-11-16T04:54:39.438Z,8.04
2023-11-16T04:55:39.449Z,8.04
2023-11-16T04:56:39.434Z,8.05
2023-11-16T04:57:39.459Z,8.06
2023-11-16T04:58:39.396Z,8.05
2023-11-16T04:59:39.408Z,8.05
2023-11-16T05:00:39.514Z,8.04
2023-11-16T05:01:39.453Z,7.98
2023-11-16T05:02:39.375Z,8.02
2023-11-16T05:03:39.427Z,8.04
2023-11-16T05:04:39.388Z,8.04
2023-11-16T05:05:39.369Z,8.02
2023-11-16T05:06:39.314Z,8.04
2023-11-16T05:07:39.333Z,8.04
2023-11-16T05:08:39.278Z,8.04
2023-11-16T05:09:39.318Z,8.05
2023-11-16T05:10:39.301Z,8.02
2023-11-16T05:11:39.264Z,7.98
2023-11-16T05:12:39.289Z,7.98
2023-11-16T05:13:39.233Z,8.01
2023-11-16T05:14:39.239Z,7.98
2023-11-16T05:15:40.920Z,7.97
2023-11-16T05:16:39.263Z,7.97
2023-11-16T05:17:39.227Z,7.98
2023-11-16T05:18:39.251Z,7.98
2023-11-16T05:19:39.175Z,7.97
2023-11-16T05:20:39.148Z,8.01
2023-11-16T05:21:39.233Z,7.98
2023-11-16T05:22:39.170Z,7.96
2023-11-16T05:23:39.188Z,7.96
2023-11-16T05:24:39.149Z,7.98
2023-11-16T05:25:39.103Z,7.97
2023-11-16T05:26:39.106Z,7.97
2023-11-16T05:27:39.197Z,7.97
2023-11-16T05:28:39.072Z,7.98
2023-11-16T05:29:39.090Z,8.02
2023-11-16T05:30:39.089Z,8.01
2023-11-16T05:31:39.114Z,7.98
2023-11-16T05:32:39.057Z,8.01
2023-11-16T05:33:39.068Z,8.01
2023-11-16T05:34:39.025Z,8.02
2023-11-16T05:35:39.010Z,7.98
2023-11-16T05:36:39.014Z,8.01
2023-11-16T05:37:39.566Z,7.98
2023-11-16T05:38:38.964Z,8.02
2023-11-16T05:39:39.028Z,8.04
2023-11-16T05:40:38.970Z,8.01
2023-11-16T05:41:38.952Z,8.01
2023-11-16T05:42:38.967Z,8.01
2023-11-16T05:43:38.963Z,8.02
2023-11-16T05:44:38.937Z,8.02
2023-11-16T05:45:39.009Z,8.01
2023-11-16T05:46:38.954Z,8.02
2023-11-16T05:47:38.934Z,8.04
2023-11-16T05:48:38.898Z,8.05
2023-11-16T05:49:38.852Z,8.06
2023-11-16T05:50:38.900Z,8.08
2023-11-16T05:51:38.868Z,8.08
2023-11-16T05:52:38.859Z,8.08
2023-11-16T05:53:38.841Z,8.08
2023-11-16T05:54:38.813Z,8.06
2023-11-16T05:55:38.817Z,8.06
2023-11-16T05:56:38.782Z,8.08
2023-11-16T05:57:38.850Z,8.06
2023-11-16T06:31:51.320Z,8.05
2023-11-16T09:40:01.266Z,9.10
2023-11-16T09:41:02.221Z,9.11
2023-11-16T09:42:02.128Z,9.10
2023-11-16T09:43:02.067Z,9.08
2023-11-16T09:44:02.082Z,9.06
2023-11-16T09:45:02.077Z,9.10
2023-11-16T09:46:02.092Z,9.08
2023-11-16T09:47:02.053Z,9.10
2023-11-16T09:48:02.069Z,9.06
2023-11-16T09:49:02.053Z,9.05
2023-11-16T09:50:01.963Z,9.02
2023-11-16T09:51:01.945Z,9.05
2023-11-16T09:52:01.940Z,9.06
2023-11-16T09:53:01.975Z,9.06
2023-11-16T09:54:01.896Z,9.08
2023-11-16T09:55:02.178Z,9.08
2023-11-16T09:56:01.949Z,9.11
2023-11-16T09:57:02.290Z,9.11
2023-11-16T09:58:02.209Z,9.14
2023-11-16T09:59:01.842Z,9.11
2023-11-16T10:00:01.810Z,9.14
2023-11-16T10:01:01.999Z,9.14
2023-11-16T10:02:01.826Z,9.16
2023-11-16T10:03:01.864Z,9.22
2023-11-16T10:04:01.894Z,9.25
2023-11-16T10:05:01.838Z,9.28
2023-11-16T10:06:01.765Z,9.29
2023-11-16T10:07:01.807Z,9.26
2023-11-16T10:08:01.770Z,9.24
2023-11-16T10:09:01.742Z,9.24
2023-11-16T10:10:01.794Z,9.24
2023-11-16T10:11:01.764Z,9.19
2023-11-16T10:12:01.783Z,9.18
2023-11-16T10:13:01.710Z,9.16
2023-11-16T10:14:01.695Z,9.18
2023-11-16T10:15:04.078Z,9.22
2023-11-16T10:16:07.340Z,9.32
2023-11-16T10:17:20.954Z,9.37
2023-11-16T10:18:15.774Z,9.37
2023-11-16T10:19:05.666Z,9.34
2023-11-16T10:20:27.246Z,9.39
2023-11-16T10:21:02.210Z,9.39
2023-11-16T10:22:12.114Z,9.39
2023-11-16T10:23:22.383Z,9.40
2023-11-16T10:24:23.122Z,9.39
2023-11-16T10:25:07.068Z,9.34
2023-11-16T10:26:06.632Z,9.29
2023-11-16T10:27:03.666Z,9.29
2023-11-16T10:28:04.446Z,9.28
2023-11-16T10:29:02.993Z,9.25
2023-11-16T10:30:03.600Z,9.22
2023-11-16T10:31:15.953Z,9.21
2023-11-16T10:32:01.986Z,9.15
2023-11-16T10:33:06.925Z,9.14
2023-11-16T10:34:06.513Z,9.10
2023-11-16T10:35:02.522Z,9.10
2023-11-16T10:36:02.506Z,9.08
2023-11-16T10:37:03.039Z,9.08
2023-11-16T10:38:02.048Z,9.05
2023-11-16T10:39:02.167Z,9.02
2023-11-16T10:40:02.530Z,8.96
2023-11-16T10:41:04.549Z,8.88
2023-11-16T10:42:03.157Z,8.82
2023-11-16T10:43:04.778Z,8.80
2023-11-16T10:44:02.299Z,8.70
2023-11-16T10:45:02.507Z,8.69
2023-11-16T10:46:06.810Z,8.69
2023-11-16T10:47:08.015Z,8.70
2023-11-16T10:48:02.326Z,8.67
2023-11-16T10:49:04.198Z,8.64
2023-11-16T10:50:02.758Z,8.63
2023-11-16T10:51:03.929Z,8.62
2023-11-16T10:54:15.072Z,8.62
2023-11-16T10:54:21.170Z,8.60
2023-11-16T11:17:54.646Z,9.61
2023-11-16T13:36:45.172Z,9.37
2023-11-16T13:37:46.020Z,9.36
2023-11-16T13:38:45.961Z,9.33
2023-11-16T13:39:45.958Z,9.28
2023-11-16T13:40:46.020Z,9.18
2023-11-16T13:41:45.888Z,9.10
2023-11-16T13:42:45.891Z,9.05
2023-11-16T13:43:46.687Z,9.00
2023-11-16T13:44:45.889Z,8.99
2023-11-16T13:45:45.942Z,8.95
2023-11-16T13:46:45.905Z,8.91
2023-11-16T13:47:45.835Z,8.90
2023-11-16T13:48:45.916Z,8.88
2023-11-16T13:49:45.830Z,8.91
2023-11-16T13:50:45.779Z,8.91
2023-11-16T14:00:32.934Z,8.91
2023-11-16T14:01:33.810Z,8.91
2023-11-16T14:02:34.134Z,8.91
2023-11-16T14:03:33.788Z,8.88
2023-11-16T14:04:33.672Z,8.85
2023-11-16T14:05:33.673Z,8.84
2023-11-16T14:06:33.751Z,8.84
2023-11-16T14:07:33.629Z,8.81
2023-11-16T14:08:33.648Z,8.82
2023-11-16T14:09:33.879Z,8.78
2023-11-16T14:10:33.623Z,8.72
2023-11-16T14:11:59.116Z,8.69
2023-11-16T14:12:33.563Z,8.66
2023-11-16T14:13:33.608Z,8.66
2023-11-16T14:14:33.534Z,8.64
2023-11-16T14:15:33.773Z,8.60
2023-11-16T14:16:34.893Z,8.55
2023-11-16T14:17:33.632Z,8.51
2023-11-16T14:18:33.549Z,8.51
2023-11-16T14:19:33.481Z,8.51
2023-11-16T14:20:33.477Z,8.51
2023-11-16T14:21:33.481Z,8.51
2023-11-16T14:22:33.528Z,8.49
2023-11-16T14:23:35.754Z,8.48
2023-11-16T14:24:33.493Z,8.47
2023-11-16T14:25:39.202Z,8.47
2023-11-16T14:26:33.832Z,8.44
2023-11-16T14:27:33.447Z,8.41
2023-11-16T14:28:33.532Z,8.34
2023-11-16T14:29:33.500Z,8.33
2023-11-16T14:30:33.586Z,8.33
2023-11-16T14:31:33.464Z,8.30
2023-11-16T14:32:33.375Z,8.29
2023-11-16T14:33:33.325Z,8.27
2023-11-16T14:34:33.352Z,8.27
2023-11-16T14:35:33.322Z,8.24
2023-11-16T14:36:33.350Z,8.21
2023-11-16T14:37:33.293Z,8.21
2023-11-16T14:38:33.404Z,8.18
2023-11-16T14:39:33.303Z,8.15
2023-11-16T14:40:33.524Z,8.15
2023-11-16T14:41:33.250Z,8.13
2023-11-16T14:42:33.363Z,8.12
2023-11-16T14:43:33.209Z,8.06
2023-11-16T14:44:33.260Z,8.06
2023-11-16T14:45:33.288Z,8.04
2023-11-16T14:46:33.356Z,8.02
2023-11-16T14:47:39.328Z,7.97
2023-11-16T14:48:33.268Z,7.97
2023-11-16T14:49:33.152Z,7.94
2023-11-16T14:50:33.238Z,7.91
2023-11-16T14:51:33.160Z,7.88
2023-11-16T14:52:33.173Z,7.90
2023-11-16T14:53:35.209Z,7.88
2023-11-16T14:54:33.134Z,7.88
2023-11-16T14:55:33.088Z,7.88
2023-11-16T14:56:33.067Z,7.88
2023-11-16T14:57:33.146Z,7.87
2023-11-16T14:58:33.045Z,7.87
2023-11-16T14:59:33.067Z,7.86
2023-11-16T15:00:33.180Z,7.84
2023-11-16T15:01:33.066Z,7.86
2023-11-16T15:02:33.370Z,7.84
2023-11-16T15:03:33.405Z,7.86
2023-11-16T15:04:33.261Z,7.83
2023-11-16T15:05:37.708Z,7.83
2023-11-16T15:06:33.072Z,7.84
2023-11-16T15:07:33.001Z,7.84
2023-11-16T15:08:32.963Z,7.86
2023-11-16T15:09:32.991Z,7.86
2023-11-16T15:10:32.959Z,7.86
2023-11-16T15:11:32.910Z,7.87
2023-11-16T15:12:32.943Z,7.88
2023-11-16T15:13:32.876Z,7.88
2023-11-16T15:14:32.905Z,7.90
2023-11-16T15:15:33.094Z,7.88
2023-11-16T15:16:32.942Z,7.91
2023-11-16T15:17:32.902Z,7.90
2023-11-16T15:18:32.929Z,7.90
2023-11-16T15:19:32.935Z,7.87
2023-11-16T15:20:32.938Z,7.90
2023-11-16T15:21:32.835Z,7.91
2023-11-16T15:22:32.899Z,7.88
2023-11-16T15:23:32.771Z,7.88
2023-11-16T15:24:32.850Z,7.87
2023-11-16T15:25:32.817Z,7.86
2023-11-16T15:26:41.650Z,7.84
2023-11-16T15:27:32.906Z,7.84
2023-11-16T15:28:32.724Z,7.79
2023-11-16T15:29:33.793Z,7.75
2023-11-16T15:30:32.787Z,7.73
2023-11-16T15:31:32.736Z,7.73
2023-11-16T15:32:32.758Z,7.70
2023-11-16T15:33:32.860Z,7.68
2023-11-16T15:34:32.750Z,7.62
2023-11-16T15:35:32.700Z,7.57
2023-11-16T15:36:32.728Z,7.54
2023-11-16T15:37:32.680Z,7.52
2023-11-16T15:38:35.659Z,7.47
2023-11-16T15:39:32.710Z,7.44
2023-11-16T15:40:32.590Z,7.44
2023-11-16T15:41:32.603Z,7.39
2023-11-16T15:42:32.634Z,7.35
2023-11-16T15:43:32.623Z,7.35
2023-11-16T15:44:32.567Z,7.31
2023-11-16T15:45:32.652Z,7.28
2023-11-16T15:46:32.636Z,7.25
2023-11-16T15:47:32.860Z,7.21
2023-11-16T15:48:32.722Z,7.20
2023-11-16T15:49:32.518Z,7.18
2023-11-16T15:50:32.514Z,7.13
2023-11-16T15:51:32.487Z,7.11
2023-11-16T15:52:32.543Z,7.08
2023-11-16T15:53:32.522Z,7.05
2023-11-16T15:54:32.540Z,7.05
2023-11-16T15:55:32.441Z,7.02
2023-11-16T15:56:32.487Z,6.98
2023-11-16T15:57:32.459Z,6.98
2023-11-16T15:58:32.478Z,6.93
2023-11-16T15:59:32.598Z,6.92
2023-11-16T16:00:32.398Z,6.89
2023-11-16T16:01:32.548Z,6.88
2023-11-16T16:02:32.628Z,6.88
2023-11-16T16:03:32.522Z,6.88
2023-11-16T16:04:32.445Z,6.84
2023-11-16T16:05:32.390Z,6.84
2023-11-16T16:06:32.338Z,6.84
2023-11-16T16:07:32.400Z,6.81
2023-11-16T16:08:32.309Z,6.80
2023-11-16T16:09:32.330Z,6.81
2023-11-16T16:10:32.304Z,6.78
2023-11-16T16:11:32.384Z,6.75
2023-11-16T16:12:32.297Z,6.74
2023-11-16T16:13:32.488Z,6.74
2023-11-16T16:14:32.337Z,6.70
2023-11-16T16:15:32.310Z,6.70
2023-11-16T16:16:32.579Z,6.66
2023-11-16T16:17:32.257Z,6.66
2023-11-16T16:18:32.291Z,6.62
2023-11-16T16:19:32.347Z,6.60
2023-11-16T16:20:32.215Z,6.59
2023-11-16T16:21:32.203Z,6.59
2023-11-16T16:22:32.226Z,6.56
2023-11-16T16:23:32.136Z,6.55
2023-11-16T16:24:32.237Z,6.49
2023-11-16T16:25:32.217Z,6.48
2023-11-16T16:48:37.805Z,6.13
2023-11-16T16:49:38.108Z,6.11
2023-11-16T16:50:36.460Z,6.11
2023-11-16T16:51:36.825Z,6.08
2023-11-16T16:52:39.114Z,6.04
2023-11-16T16:53:39.775Z,6.05
2023-11-16T16:54:37.674Z,6.01
2023-11-16T16:55:37.381Z,6.03
2023-11-16T16:56:39.274Z,6.03
2023-11-16T16:57:38.023Z,6.03
2023-11-16T16:58:48.640Z,6.04
2023-11-16T17:37:40.969Z,6.45
2023-11-16T17:38:42.163Z,6.44
2023-11-16T17:39:42.019Z,6.42
2023-11-16T17:40:41.928Z,6.41
2023-11-16T17:41:41.921Z,6.41
2023-11-16T17:42:41.912Z,6.41
2023-11-16T17:43:41.943Z,6.37
2023-11-16T17:44:41.882Z,6.38
2023-11-16T17:45:41.974Z,6.39
2023-11-16T17:46:41.999Z,6.38
2023-11-16T17:47:41.952Z,6.39
2023-11-16T17:48:41.914Z,6.37
2023-11-16T17:49:42.063Z,6.38
2023-11-16T17:50:41.838Z,6.38
2023-11-16T17:51:41.792Z,6.37
2023-11-16T17:52:41.772Z,6.37
2023-11-16T17:53:47.097Z,6.41
2023-11-16T17:54:41.856Z,6.41
2023-11-16T17:55:41.778Z,6.44
2023-11-16T17:56:41.751Z,6.45
2023-11-16T17:57:41.903Z,6.48
2023-11-16T17:58:42.171Z,6.49
2023-11-16T17:59:43.905Z,6.53
2023-11-16T18:00:41.892Z,6.56
2023-11-16T18:01:42.024Z,6.56
2023-11-16T18:02:43.331Z,6.59
2023-11-16T18:03:41.778Z,6.60
2023-11-16T18:04:41.967Z,6.60
2023-11-16T18:05:41.714Z,6.60
2023-11-16T18:06:41.852Z,6.63
2023-11-16T18:07:41.787Z,6.62
2023-11-16T18:08:42.004Z,6.65
2023-11-16T18:09:41.835Z,6.63
2023-11-16T18:10:42.097Z,6.63
2023-11-16T18:11:45.378Z,6.60
2023-11-16T18:13:05.427Z,6.57
2023-11-16T18:14:15.125Z,6.56
2023-11-16T18:14:52.055Z,6.55
2023-11-16T18:16:04.118Z,6.56
2023-11-16T18:16:42.477Z,6.56
2023-11-16T18:17:42.321Z,6.55
2023-11-16T18:18:42.012Z,6.55
2023-11-16T20:24:05.484Z,6.03
2023-11-16T20:25:05.520Z,6.01
2023-11-16T20:26:04.823Z,6.01
2023-11-16T20:27:04.729Z,6.00
2023-11-16T20:28:04.955Z,6.01
2023-11-16T20:29:04.709Z,6.01
2023-11-16T20:30:04.746Z,6.01
2023-11-16T20:31:04.822Z,5.98
2023-11-16T20:32:04.699Z,5.95
2023-11-16T20:33:10.972Z,5.92
2023-11-16T20:34:04.748Z,5.92
2023-11-16T20:35:04.638Z,5.87
2023-11-16T20:36:04.636Z,5.86
2023-11-16T20:37:04.674Z,5.82
2023-11-16T20:38:04.999Z,5.77
2023-11-16T20:39:04.659Z,5.74
2023-11-16T20:40:04.798Z,5.71
2023-11-16T20:41:04.658Z,5.65
2023-11-16T20:42:04.607Z,5.61
2023-11-16T20:43:04.623Z,5.57
2023-11-16T20:44:04.641Z,5.53
2023-11-16T20:45:05.451Z,5.51
2023-11-16T20:46:04.589Z,5.49
2023-11-16T20:47:04.670Z,5.44
2023-11-16T20:48:04.628Z,5.43
2023-11-16T20:49:04.488Z,5.42
2023-11-16T20:50:04.584Z,5.39
2023-11-16T20:51:04.790Z,5.36
2023-11-16T20:52:04.601Z,5.36
2023-11-16T20:53:04.449Z,5.35
2023-11-16T20:54:04.511Z,5.32
2023-11-16T20:55:04.439Z,5.31
2023-11-16T20:56:04.562Z,5.24
2023-11-16T20:57:04.422Z,5.22
2023-11-16T20:58:04.485Z,5.16
2023-11-16T20:59:04.402Z,5.13
2023-11-16T21:00:04.388Z,5.11
2023-11-16T21:01:04.458Z,5.10
2023-11-16T21:02:04.373Z,5.08
2023-11-16T21:03:04.500Z,5.08
2023-11-16T21:04:05.268Z,5.07
2023-11-16T21:05:04.394Z,5.04
2023-11-16T21:06:04.321Z,5.01
2023-11-16T21:07:04.370Z,4.98
2023-11-16T21:08:04.269Z,4.95
2023-11-16T21:09:04.294Z,4.92
2023-11-16T21:10:04.420Z,4.89
2023-11-16T21:11:04.304Z,4.86
2023-11-16T21:12:04.268Z,4.86
2023-11-16T21:13:04.312Z,4.86
2023-11-16T21:14:04.261Z,4.83
2023-11-16T21:15:04.271Z,4.85
2023-11-16T21:16:04.338Z,4.80
2023-11-16T21:17:04.326Z,4.83
2023-11-16T21:18:04.186Z,4.80
2023-11-16T21:19:04.225Z,4.80
2023-11-16T21:20:04.131Z,4.77
2023-11-16T21:21:04.171Z,4.77
2023-11-16T21:22:04.216Z,4.74
2023-11-16T21:23:04.195Z,4.73
2023-11-16T21:24:04.124Z,4.71
2023-11-16T21:25:04.150Z,4.70
2023-11-16T21:26:04.103Z,4.70
2023-11-16T21:27:04.117Z,4.67
2023-11-16T21:28:04.148Z,4.67
2023-11-16T21:29:04.091Z,4.66
2023-11-16T21:30:04.046Z,4.67
2023-11-16T21:31:04.126Z,4.66
2023-11-16T21:32:04.182Z,4.64
2023-11-16T21:33:04.068Z,4.64
2023-11-16T21:34:04.220Z,4.63
2023-11-16T21:35:04.024Z,4.63
2023-11-16T21:36:03.982Z,4.61
2023-11-16T21:37:04.073Z,4.61
2023-11-16T21:38:03.950Z,4.63
2023-11-16T21:39:03.998Z,4.59
2023-11-16T21:40:04.089Z,4.61
2023-11-16T21:41:03.921Z,4.59
2023-11-16T21:42:03.925Z,4.59
2023-11-16T21:43:03.966Z,4.58
2023-11-16T21:44:03.903Z,4.58
2023-11-16T21:45:03.982Z,4.55
2023-11-16T21:46:03.912Z,4.56
2023-11-16T21:47:04.017Z,4.55
2023-11-16T21:48:03.947Z,4.55
2023-11-16T21:49:04.010Z,4.52
2023-11-16T21:50:03.848Z,4.51
2023-11-16T21:51:03.842Z,4.49
2023-11-16T21:52:03.871Z,4.48
2023-11-16T21:53:03.821Z,4.43
2023-11-16T21:54:04.814Z,4.45
2023-11-16T21:55:03.847Z,4.43
2023-11-16T21:56:03.784Z,4.41
2023-11-16T21:57:03.791Z,4.40
2023-11-16T21:58:03.822Z,4.40
2023-11-16T21:59:03.761Z,4.37
2023-11-16T23:42:10.429Z,3.64
2023-11-16T23:43:10.850Z,3.66
2023-11-16T23:44:10.717Z,3.68
2023-11-16T23:45:10.915Z,3.66
2023-11-16T23:46:10.640Z,3.65
2023-11-16T23:47:11.064Z,3.64
2023-11-16T23:48:10.620Z,3.62
2023-11-16T23:49:10.602Z,3.62
2023-11-16T23:50:10.551Z,3.61
2023-11-16T23:51:16.029Z,3.64
2023-11-16T23:52:10.602Z,3.61
2023-11-16T23:53:10.567Z,3.64
2023-11-16T23:54:10.460Z,3.64
2023-11-16T23:55:10.763Z,3.65
2023-11-16T23:56:10.466Z,3.64
2023-11-16T23:57:10.435Z,3.61
2023-11-16T23:58:10.507Z,3.65
